createdAt,value
2023-03-06T00:00:10.606Z,69.15
2023-03-06T00:00:28.709Z,69.46
2023-03-06T00:00:44.761Z,69.29
2023-03-06T00:00:59.668Z,69.39
2023-03-06T00:01:17.122Z,69.42
2023-03-06T00:01:29.255Z,69.49
2023-03-06T00:01:41.371Z,69.53
2023-03-06T00:01:53.405Z,69.43
2023-03-06T00:02:05.619Z,69.44
2023-03-06T00:02:17.748Z,69.41
2023-03-06T00:02:31.222Z,69.48
2023-03-06T00:02:44.234Z,69.71
2023-03-06T00:02:57.015Z,69.59
2023-03-06T00:03:09.910Z,69.73
2023-03-06T00:03:22.556Z,69.79
2023-03-06T00:03:34.718Z,69.77
2023-03-06T00:03:47.189Z,69.70
2023-03-06T00:03:59.670Z,69.65
2023-03-06T00:04:11.570Z,69.38
2023-03-06T00:04:23.741Z,69.48
2023-03-06T00:04:36.473Z,69.48
2023-03-06T00:04:48.744Z,69.78
2023-03-06T00:05:01.044Z,69.55
2023-03-06T00:05:14.026Z,69.35
2023-03-06T00:05:27.685Z,69.80
2023-03-06T00:05:41.671Z,69.54
2023-03-06T00:05:54.036Z,69.99
2023-03-06T00:06:06.859Z,70.00
2023-03-06T00:06:19.323Z,69.51
2023-03-06T00:06:32.655Z,70.05
2023-03-06T00:06:45.356Z,69.78
2023-03-06T00:06:57.706Z,69.81
2023-03-06T00:07:12.085Z,69.70
2023-03-06T00:07:26.220Z,70.18
2023-03-06T00:07:39.434Z,69.71
2023-03-06T00:07:52.024Z,69.75
2023-03-06T00:08:06.105Z,69.81
2023-03-06T00:08:18.467Z,69.82
2023-03-06T00:08:32.238Z,70.22
2023-03-06T00:08:45.084Z,69.84
2023-03-06T00:08:58.153Z,70.13
2023-03-06T00:09:11.260Z,70.37
2023-03-06T00:09:23.736Z,70.09
2023-03-06T00:09:36.038Z,70.26
2023-03-06T00:09:48.323Z,70.59
2023-03-06T00:10:00.227Z,70.35
2023-03-06T00:10:14.829Z,70.30
2023-03-06T00:10:29.771Z,70.31
2023-03-06T00:10:42.100Z,70.73
2023-03-06T00:10:54.516Z,70.28
2023-03-06T00:11:07.197Z,70.63
2023-03-06T00:11:19.611Z,70.68
2023-03-06T00:11:31.853Z,70.59
2023-03-06T00:11:44.121Z,70.73
2023-03-06T00:11:56.842Z,70.57
2023-03-06T00:12:10.252Z,70.51
2023-03-06T00:12:23.692Z,70.77
2023-03-06T00:12:35.917Z,70.69
2023-03-06T00:12:49.130Z,70.83
2023-03-06T00:13:03.059Z,70.87
2023-03-06T00:13:17.798Z,70.72
2023-03-06T00:13:29.986Z,70.81
2023-03-06T00:13:42.213Z,70.86
2023-03-06T00:13:54.722Z,70.99
2023-03-06T00:14:06.743Z,70.89
2023-03-06T00:14:18.584Z,71.27
2023-03-06T00:14:30.547Z,70.97
2023-03-06T00:14:43.065Z,71.31
2023-03-06T00:14:55.461Z,71.04
2023-03-06T00:15:09.898Z,70.98
2023-03-06T00:15:24.039Z,71.34
2023-03-06T00:15:37.272Z,71.46
2023-03-06T00:15:50.369Z,71.53
2023-03-06T00:16:03.916Z,71.16
2023-03-06T00:16:16.169Z,71.50
2023-03-06T00:16:29.849Z,71.67
2023-03-06T00:16:42.540Z,71.24
2023-03-06T00:16:55.287Z,71.37
2023-03-06T00:17:09.802Z,71.14
2023-03-06T00:17:23.334Z,71.56
2023-03-06T00:17:35.647Z,71.47
2023-03-06T00:17:50.203Z,71.74
2023-03-06T00:18:03.619Z,71.77
2023-03-06T00:18:16.518Z,71.50
2023-03-06T00:18:28.832Z,71.75
2023-03-06T00:18:41.876Z,71.81
2023-03-06T00:18:54.210Z,71.89
2023-03-06T00:19:07.254Z,71.88
2023-03-06T00:19:19.787Z,72.06
2023-03-06T00:19:32.506Z,71.85
2023-03-06T00:19:45.015Z,72.25
2023-03-06T00:19:57.432Z,72.00
2023-03-06T00:20:10.809Z,72.02
2023-03-06T00:20:25.092Z,71.74
2023-03-06T00:20:39.021Z,72.09
2023-03-06T00:20:51.254Z,72.06
2023-03-06T00:21:07.611Z,72.07
2023-03-06T00:21:19.457Z,72.33
2023-03-06T00:21:31.806Z,72.33
2023-03-06T00:21:44.707Z,72.18
2023-03-06T00:21:57.270Z,72.23
2023-03-06T00:22:15.409Z,72.31
2023-03-06T00:22:27.244Z,72.40
2023-03-06T00:22:40.817Z,72.61
2023-03-06T00:22:53.370Z,72.75
2023-03-06T00:23:06.089Z,72.67
2023-03-06T00:23:18.379Z,72.23
2023-03-06T00:23:32.031Z,72.58
2023-03-06T00:23:44.379Z,72.55
2023-03-06T00:23:57.116Z,72.87
2023-03-06T00:24:09.166Z,73.02
2023-03-06T00:24:22.371Z,72.68
2023-03-06T00:24:35.978Z,73.16
2023-03-06T00:24:49.416Z,72.95
2023-03-06T00:25:04.693Z,72.61
2023-03-06T00:25:18.955Z,72.68
2023-03-06T00:25:31.130Z,72.64
2023-03-06T00:25:44.177Z,72.60
2023-03-06T00:25:56.799Z,72.84
2023-03-06T00:26:10.688Z,72.80
2023-03-06T00:26:25.405Z,72.20
2023-03-06T00:26:39.350Z,72.70
2023-03-06T00:26:52.759Z,72.17
2023-03-06T00:27:05.226Z,72.02
2023-03-06T00:27:17.658Z,72.25
2023-03-06T00:27:31.160Z,72.24
2023-03-06T00:27:43.363Z,72.11
2023-03-06T00:27:55.709Z,71.84
2023-03-06T00:28:09.307Z,72.21
2023-03-06T00:28:21.773Z,72.02
2023-03-06T00:28:33.835Z,72.13
2023-03-06T00:28:46.560Z,71.79
2023-03-06T00:28:58.774Z,71.68
2023-03-06T00:29:11.695Z,71.98
2023-03-06T00:29:24.402Z,71.73
2023-03-06T00:29:36.533Z,71.84
2023-03-06T00:29:48.981Z,71.57
2023-03-06T00:30:02.242Z,71.45
2023-03-06T00:30:16.892Z,71.88
2023-03-06T00:30:29.010Z,72.05
2023-03-06T00:30:41.437Z,71.73
2023-03-06T00:30:53.721Z,71.79
2023-03-06T00:31:06.472Z,71.80
2023-03-06T00:31:19.364Z,71.84
2023-03-06T00:31:33.150Z,71.59
2023-03-06T00:31:45.820Z,71.43
2023-03-06T00:31:58.106Z,71.77
2023-03-06T00:32:11.790Z,71.65
2023-03-06T00:32:25.240Z,71.74
2023-03-06T00:32:37.880Z,71.54
2023-03-06T00:32:50.416Z,71.37
2023-03-06T00:33:03.307Z,71.66
2023-03-06T00:33:16.624Z,71.76
2023-03-06T00:33:29.058Z,71.47
2023-03-06T00:33:41.607Z,71.62
2023-03-06T00:33:54.027Z,71.58
2023-03-06T00:34:07.176Z,71.53
2023-03-06T00:34:19.476Z,71.58
2023-03-06T00:34:32.340Z,71.73
2023-03-06T00:34:48.179Z,71.91
2023-03-06T00:35:01.058Z,71.83
2023-03-06T00:35:14.782Z,71.70
2023-03-06T00:35:28.894Z,72.08
2023-03-06T00:35:42.056Z,71.50
2023-03-06T00:35:54.366Z,71.87
2023-03-06T00:36:07.264Z,71.65
2023-03-06T00:36:19.873Z,71.56
2023-03-06T00:36:32.236Z,71.64
2023-03-06T00:36:45.536Z,71.42
2023-03-06T00:36:58.259Z,71.43
2023-03-06T00:37:11.470Z,71.59
2023-03-06T00:37:25.230Z,71.46
2023-03-06T00:37:38.102Z,71.44
2023-03-06T00:37:51.584Z,71.29
2023-03-06T00:38:03.846Z,71.90
2023-03-06T00:38:18.018Z,71.74
2023-03-06T00:38:30.938Z,71.45
2023-03-06T00:38:43.104Z,71.42
2023-03-06T00:38:55.645Z,71.39
2023-03-06T00:39:10.152Z,71.59
2023-03-06T00:39:22.365Z,71.63
2023-03-06T00:39:34.496Z,71.15
2023-03-06T00:39:47.152Z,71.39
2023-03-06T00:40:00.698Z,71.34
2023-03-06T00:40:15.816Z,71.38
2023-03-06T00:40:30.007Z,70.97
2023-03-06T00:40:42.650Z,71.43
2023-03-06T00:40:54.680Z,71.30
2023-03-06T00:41:08.237Z,71.34
2023-03-06T00:41:21.117Z,70.96
2023-03-06T00:41:33.216Z,71.05
2023-03-06T00:41:47.016Z,70.75
2023-03-06T00:41:59.750Z,70.99
2023-03-06T00:42:12.745Z,70.91
2023-03-06T00:42:25.079Z,70.45
2023-03-06T00:42:37.402Z,70.63
2023-03-06T00:42:50.391Z,70.89
2023-03-06T00:43:07.199Z,70.58
2023-03-06T00:43:21.486Z,71.03
2023-03-06T00:43:34.670Z,71.01
2023-03-06T00:43:48.086Z,70.63
2023-03-06T00:44:00.554Z,70.33
2023-03-06T00:44:14.179Z,70.78
2023-03-06T00:44:26.335Z,70.19
2023-03-06T00:44:39.530Z,70.54
2023-03-06T00:44:54.206Z,70.45
2023-03-06T00:45:10.744Z,70.31
2023-03-06T00:45:25.471Z,70.28
2023-03-06T00:45:37.837Z,70.60
2023-03-06T00:45:50.676Z,70.57
2023-03-06T00:46:03.185Z,70.34
2023-03-06T00:46:15.449Z,70.57
2023-03-06T00:46:27.794Z,70.54
2023-03-06T00:46:42.195Z,70.72
2023-03-06T00:46:54.910Z,70.53
2023-03-06T00:47:09.693Z,70.83
2023-03-06T00:47:21.814Z,70.96
2023-03-06T00:47:34.743Z,70.60
2023-03-06T00:47:47.734Z,71.01
2023-03-06T00:48:00.927Z,70.72
2023-03-06T00:48:13.201Z,70.76
2023-03-06T00:48:25.445Z,70.95
2023-03-06T00:48:37.736Z,70.74
2023-03-06T00:48:49.925Z,71.26
2023-03-06T00:49:04.459Z,71.29
2023-03-06T00:49:16.837Z,70.91
2023-03-06T00:49:29.795Z,71.21
2023-03-06T00:49:44.738Z,71.05
2023-03-06T00:49:58.490Z,71.15
2023-03-06T00:50:11.655Z,71.09
2023-03-06T00:50:23.958Z,70.96
2023-03-06T00:50:36.977Z,71.26
2023-03-06T00:50:49.470Z,71.26
2023-03-06T00:51:01.848Z,70.98
2023-03-06T00:51:14.654Z,71.39
2023-03-06T00:51:28.576Z,71.13
2023-03-06T00:51:40.615Z,70.94
2023-03-06T00:51:52.601Z,71.43
2023-03-06T00:52:06.343Z,71.12
2023-03-06T00:52:19.395Z,71.06
2023-03-06T00:52:31.921Z,71.38
2023-03-06T00:52:44.758Z,71.48
2023-03-06T00:52:58.540Z,71.31
2023-03-06T00:53:11.513Z,71.56
2023-03-06T00:53:24.122Z,71.46
2023-03-06T00:53:36.626Z,71.37
2023-03-06T00:53:48.808Z,71.50
2023-03-06T00:54:03.293Z,71.40
2023-03-06T00:54:15.035Z,71.72
2023-03-06T00:54:27.447Z,71.42
2023-03-06T00:54:39.704Z,71.89
2023-03-06T00:54:54.345Z,71.62
2023-03-06T00:55:08.082Z,71.41
2023-03-06T00:55:20.093Z,71.69
2023-03-06T00:55:32.081Z,71.84
2023-03-06T00:55:44.556Z,71.30
2023-03-06T00:55:57.217Z,71.68
2023-03-06T00:56:09.189Z,71.60
2023-03-06T00:56:21.617Z,71.32
2023-03-06T00:56:34.208Z,71.63
2023-03-06T00:56:46.334Z,71.65
2023-03-06T00:56:59.242Z,71.60
2023-03-06T00:57:12.683Z,71.40
2023-03-06T00:57:24.598Z,71.29
2023-03-06T00:57:36.876Z,71.56
2023-03-06T00:57:51.129Z,71.34
2023-03-06T00:58:03.615Z,71.24
2023-03-06T00:58:23.705Z,71.67
2023-03-06T00:58:36.078Z,71.25
2023-03-06T00:58:48.061Z,71.20
2023-03-06T00:59:00.150Z,71.32
2023-03-06T00:59:12.566Z,71.02
2023-03-06T00:59:24.776Z,71.37
2023-03-06T00:59:38.186Z,71.22
2023-03-06T00:59:50.506Z,71.33
2023-03-06T01:00:02.625Z,70.87
2023-03-06T01:00:15.320Z,70.95
2023-03-06T01:00:27.530Z,70.79
2023-03-06T01:00:40.116Z,70.81
2023-03-06T01:00:53.159Z,70.96
2023-03-06T01:01:05.572Z,70.70
2023-03-06T01:01:17.589Z,70.71
2023-03-06T01:01:29.813Z,70.67
2023-03-06T01:01:42.407Z,70.80
2023-03-06T01:01:54.233Z,70.64
2023-03-06T01:02:06.829Z,70.94
2023-03-06T01:02:19.339Z,70.90
2023-03-06T01:02:32.092Z,70.37
2023-03-06T01:02:44.098Z,70.48
2023-03-06T01:02:56.224Z,70.34
2023-03-06T01:03:09.437Z,70.49
2023-03-06T01:03:22.164Z,70.65
2023-03-06T01:03:39.132Z,70.35
2023-03-06T01:03:51.515Z,70.50
2023-03-06T01:04:05.745Z,70.57
2023-03-06T01:04:18.288Z,70.46
2023-03-06T01:04:33.445Z,70.09
2023-03-06T01:04:46.176Z,70.00
2023-03-06T01:04:59.726Z,70.21
2023-03-06T01:05:13.322Z,70.35
2023-03-06T01:05:26.305Z,70.02
2023-03-06T01:05:39.505Z,70.37
2023-03-06T01:05:52.100Z,69.84
2023-03-06T01:06:04.406Z,70.32
2023-03-06T01:06:16.512Z,70.06
2023-03-06T01:06:28.828Z,69.75
2023-03-06T01:06:41.540Z,69.95
2023-03-06T01:06:54.457Z,69.95
2023-03-06T01:07:06.669Z,70.19
2023-03-06T01:07:20.440Z,70.01
2023-03-06T01:07:32.234Z,70.20
2023-03-06T01:07:44.377Z,70.24
2023-03-06T01:07:58.152Z,70.23
2023-03-06T01:08:12.069Z,69.64
2023-03-06T01:08:24.568Z,69.84
2023-03-06T01:08:37.552Z,69.83
2023-03-06T01:08:50.493Z,69.75
2023-03-06T01:09:04.513Z,69.84
2023-03-06T01:09:16.688Z,69.74
2023-03-06T01:09:30.106Z,70.12
2023-03-06T01:09:42.498Z,70.11
2023-03-06T01:09:55.690Z,69.74
2023-03-06T01:10:10.550Z,70.17
2023-03-06T01:10:22.649Z,69.94
2023-03-06T01:10:37.953Z,69.70
2023-03-06T01:10:50.375Z,69.59
2023-03-06T01:11:02.692Z,70.04
2023-03-06T01:11:15.193Z,69.56
2023-03-06T01:11:28.956Z,70.04
2023-03-06T01:11:41.279Z,69.82
2023-03-06T01:11:53.681Z,69.99
2023-03-06T01:12:06.760Z,70.16
2023-03-06T01:12:22.846Z,70.20
2023-03-06T01:12:36.649Z,69.91
2023-03-06T01:12:48.813Z,70.00
2023-03-06T01:13:01.605Z,69.84
2023-03-06T01:13:14.102Z,69.99
2023-03-06T01:13:26.528Z,70.14
2023-03-06T01:13:39.160Z,70.01
2023-03-06T01:13:51.806Z,70.14
2023-03-06T01:14:05.940Z,69.95
2023-03-06T01:14:17.950Z,69.94
2023-03-06T01:14:30.199Z,69.97
2023-03-06T01:14:42.493Z,70.06
2023-03-06T01:14:55.116Z,70.23
2023-03-06T01:15:08.985Z,70.14
2023-03-06T01:15:21.696Z,70.14
2023-03-06T01:15:34.060Z,70.00
2023-03-06T01:15:47.912Z,69.94
2023-03-06T01:16:07.352Z,70.42
2023-03-06T01:16:20.113Z,69.98
2023-03-06T01:16:34.203Z,70.42
2023-03-06T01:16:46.429Z,70.23
2023-03-06T01:16:58.829Z,70.38
2023-03-06T01:17:12.228Z,70.37
2023-03-06T01:17:24.611Z,70.06
2023-03-06T01:17:37.025Z,70.42
2023-03-06T01:17:51.676Z,70.17
2023-03-06T01:18:04.186Z,70.55
2023-03-06T01:18:16.381Z,70.64
2023-03-06T01:18:28.957Z,70.52
2023-03-06T01:18:43.145Z,70.52
2023-03-06T01:18:55.750Z,70.45
2023-03-06T01:19:08.505Z,70.75
2023-03-06T01:19:23.410Z,70.46
2023-03-06T01:19:35.459Z,70.68
2023-03-06T01:19:48.124Z,70.61
2023-03-06T01:20:00.371Z,70.90
2023-03-06T01:20:15.076Z,70.46
2023-03-06T01:20:28.347Z,70.70
2023-03-06T01:20:40.745Z,70.70
2023-03-06T01:20:53.539Z,71.12
2023-03-06T01:21:07.118Z,70.74
2023-03-06T01:21:20.243Z,71.29
2023-03-06T01:21:33.374Z,71.11
2023-03-06T01:21:45.844Z,71.21
2023-03-06T01:21:58.135Z,71.62
2023-03-06T01:22:10.866Z,71.86
2023-03-06T01:22:23.533Z,71.51
2023-03-06T01:22:38.526Z,71.41
2023-03-06T01:22:52.452Z,71.32
2023-03-06T01:23:05.712Z,71.44
2023-03-06T01:23:17.969Z,71.29
2023-03-06T01:23:33.250Z,71.34
2023-03-06T01:23:45.702Z,71.38
2023-03-06T01:23:59.409Z,71.43
2023-03-06T01:24:13.408Z,71.99
2023-03-06T01:24:26.182Z,71.90
2023-03-06T01:24:43.897Z,71.51
2023-03-06T01:24:56.398Z,71.68
2023-03-06T01:25:09.880Z,71.47
2023-03-06T01:25:22.116Z,71.36
2023-03-06T01:25:37.622Z,71.50
2023-03-06T01:25:50.454Z,71.71
2023-03-06T01:26:06.080Z,71.61
2023-03-06T01:26:20.220Z,71.24
2023-03-06T01:26:32.639Z,71.39
2023-03-06T01:26:51.756Z,71.20
2023-03-06T01:27:04.853Z,70.97
2023-03-06T01:27:17.453Z,71.06
2023-03-06T01:27:29.649Z,70.65
2023-03-06T01:27:43.358Z,70.88
2023-03-06T01:27:56.834Z,70.71
2023-03-06T01:28:09.109Z,70.74
2023-03-06T01:28:21.558Z,70.71
2023-03-06T01:28:34.051Z,70.81
2023-03-06T01:28:47.840Z,70.77
2023-03-06T01:29:00.023Z,70.41
2023-03-06T01:29:13.402Z,70.58
2023-03-06T01:29:26.071Z,70.54
2023-03-06T01:29:38.674Z,70.58
2023-03-06T01:29:50.948Z,70.81
2023-03-06T01:30:04.045Z,70.49
2023-03-06T01:30:17.211Z,70.70
2023-03-06T01:30:29.628Z,70.78
2023-03-06T01:30:42.532Z,70.98
2023-03-06T01:30:54.856Z,71.13
2023-03-06T01:31:08.075Z,71.20
2023-03-06T01:31:20.485Z,71.14
2023-03-06T01:31:33.133Z,70.84
2023-03-06T01:31:48.182Z,70.77
2023-03-06T01:32:01.136Z,71.14
2023-03-06T01:32:13.373Z,70.85
2023-03-06T01:32:27.096Z,70.77
2023-03-06T01:32:39.707Z,70.86
2023-03-06T01:32:53.062Z,71.07
2023-03-06T01:33:05.873Z,70.92
2023-03-06T01:33:18.059Z,70.95
2023-03-06T01:33:30.509Z,71.14
2023-03-06T01:33:43.531Z,70.75
2023-03-06T01:33:56.129Z,70.37
2023-03-06T01:34:08.447Z,70.66
2023-03-06T01:34:21.101Z,70.44
2023-03-06T01:34:34.120Z,70.73
2023-03-06T01:34:46.758Z,70.68
2023-03-06T01:34:59.427Z,70.63
2023-03-06T01:35:12.989Z,70.69
2023-03-06T01:35:26.147Z,70.71
2023-03-06T01:35:38.485Z,70.10
2023-03-06T01:35:53.189Z,70.22
2023-03-06T01:36:07.496Z,70.09
2023-03-06T01:36:19.781Z,70.00
2023-03-06T01:36:32.288Z,69.88
2023-03-06T01:36:45.206Z,70.08
2023-03-06T01:36:57.928Z,70.34
2023-03-06T01:37:10.936Z,70.00
2023-03-06T01:37:23.030Z,70.31
2023-03-06T01:37:35.941Z,70.19
2023-03-06T01:37:48.790Z,70.37
2023-03-06T01:38:01.319Z,70.31
2023-03-06T01:38:15.578Z,70.05
2023-03-06T01:38:27.953Z,70.04
2023-03-06T01:38:40.211Z,70.09
2023-03-06T01:38:52.572Z,69.67
2023-03-06T01:39:05.485Z,70.03
2023-03-06T01:39:17.827Z,69.83
2023-03-06T01:39:30.782Z,70.06
2023-03-06T01:39:42.625Z,69.92
2023-03-06T01:39:55.045Z,69.88
2023-03-06T01:40:10.236Z,69.87
2023-03-06T01:40:22.716Z,69.99
2023-03-06T01:40:37.813Z,69.99
2023-03-06T01:40:51.939Z,70.37
2023-03-06T01:41:04.786Z,70.15
2023-03-06T01:41:17.507Z,70.20
2023-03-06T01:41:29.857Z,70.18
2023-03-06T01:41:42.548Z,70.40
2023-03-06T01:41:55.302Z,70.40
2023-03-06T01:42:07.954Z,70.10
2023-03-06T01:42:20.651Z,70.10
2023-03-06T01:42:32.893Z,69.96
2023-03-06T01:42:50.247Z,70.09
2023-03-06T01:43:10.004Z,69.91
2023-03-06T01:43:29.004Z,70.20
2023-03-06T01:43:42.242Z,70.00
2023-03-06T01:43:54.467Z,70.11
2023-03-06T01:44:08.019Z,69.99
2023-03-06T01:44:20.560Z,69.70
2023-03-06T01:44:33.617Z,69.67
2023-03-06T01:45:07.460Z,69.32
2023-03-06T01:45:57.774Z,69.67
2023-03-06T01:46:38.178Z,69.70
2023-03-06T01:46:51.230Z,69.70
2023-03-06T01:47:03.662Z,69.69
2023-03-06T01:47:15.895Z,69.94
2023-03-06T01:47:28.413Z,69.59
2023-03-06T01:47:40.911Z,70.01
2023-03-06T01:47:53.772Z,69.89
2023-03-06T01:48:06.036Z,69.98
2023-03-06T01:48:20.618Z,69.59
2023-03-06T01:48:35.411Z,69.60
2023-03-06T01:48:48.505Z,69.42
2023-03-06T01:49:04.468Z,69.68
2023-03-06T01:49:20.643Z,69.35
2023-03-06T01:49:37.271Z,69.83
2023-03-06T01:49:50.196Z,69.70
2023-03-06T01:50:03.902Z,69.52
2023-03-06T01:50:16.771Z,69.52
2023-03-06T01:50:29.391Z,69.92
2023-03-06T01:50:42.527Z,69.57
2023-03-06T01:50:55.704Z,69.94
2023-03-06T01:51:09.637Z,69.92
2023-03-06T01:51:21.971Z,69.77
2023-03-06T01:51:38.652Z,69.54
2023-03-06T01:51:53.701Z,69.25
2023-03-06T01:52:09.116Z,69.78
2023-03-06T01:52:24.110Z,69.24
2023-03-06T01:52:43.624Z,69.28
2023-03-06T01:53:00.069Z,69.33
2023-03-06T01:53:14.109Z,69.69
2023-03-06T01:53:27.958Z,69.38
2023-03-06T01:53:41.362Z,69.65
2023-03-06T01:53:54.273Z,69.47
2023-03-06T01:54:10.666Z,69.57
2023-03-06T01:54:25.348Z,69.49
2023-03-06T01:54:42.814Z,69.45
2023-03-06T01:54:59.112Z,69.48
2023-03-06T01:55:15.713Z,69.33
2023-03-06T01:55:33.418Z,69.54
2023-03-06T01:55:46.074Z,69.62
2023-03-06T01:55:58.790Z,69.34
2023-03-06T01:56:13.046Z,69.25
2023-03-06T01:56:26.165Z,69.49
2023-03-06T01:56:41.928Z,69.50
2023-03-06T01:56:57.891Z,69.25
2023-03-06T01:57:13.713Z,69.00
2023-03-06T01:57:28.979Z,69.02
2023-03-06T01:57:44.412Z,69.28
2023-03-06T01:57:59.438Z,68.92
2023-03-06T01:58:17.776Z,69.07
2023-03-06T01:58:30.151Z,69.31
2023-03-06T01:58:44.554Z,69.35
2023-03-06T01:58:57.373Z,69.21
2023-03-06T01:59:09.736Z,69.42
2023-03-06T01:59:22.872Z,68.69
2023-03-06T01:59:38.442Z,68.62
2023-03-06T01:59:55.703Z,68.68
2023-03-06T02:00:13.374Z,68.94
2023-03-06T02:00:29.531Z,68.77
2023-03-06T02:00:42.142Z,68.59
2023-03-06T02:00:54.905Z,68.72
2023-03-06T02:01:10.121Z,68.86
2023-03-06T02:01:23.002Z,68.71
2023-03-06T02:01:36.699Z,68.69
2023-03-06T02:01:50.275Z,68.42
2023-03-06T02:02:04.080Z,68.81
2023-03-06T02:02:19.557Z,68.98
2023-03-06T02:02:31.443Z,68.99
2023-03-06T02:02:49.240Z,68.84
2023-03-06T02:03:06.622Z,69.11
2023-03-06T02:03:22.864Z,68.54
2023-03-06T02:03:35.991Z,68.53
2023-03-06T02:03:50.526Z,69.06
2023-03-06T02:04:11.554Z,69.03
2023-03-06T02:04:24.711Z,68.62
2023-03-06T02:04:38.701Z,68.96
2023-03-06T02:04:51.217Z,68.79
2023-03-06T02:05:06.835Z,68.83
2023-03-06T02:05:19.778Z,68.66
2023-03-06T02:05:32.735Z,68.79
2023-03-06T02:05:47.610Z,68.81
2023-03-06T02:06:02.342Z,68.54
2023-03-06T02:06:19.010Z,68.81
2023-03-06T02:06:32.506Z,68.84
2023-03-06T02:06:49.315Z,68.46
2023-03-06T02:07:04.414Z,68.25
2023-03-06T02:07:20.743Z,68.12
2023-03-06T02:07:33.776Z,68.38
2023-03-06T02:07:47.359Z,68.05
2023-03-06T02:08:00.235Z,68.16
2023-03-06T02:08:16.089Z,68.06
2023-03-06T02:08:32.926Z,68.54
2023-03-06T02:08:45.277Z,68.55
2023-03-06T02:08:57.910Z,68.27
2023-03-06T02:09:12.355Z,68.37
2023-03-06T02:09:24.579Z,68.42
2023-03-06T02:09:39.552Z,68.40
2023-03-06T02:09:53.551Z,68.46
2023-03-06T02:10:06.163Z,68.22
2023-03-06T02:10:21.544Z,68.14
2023-03-06T02:10:33.950Z,68.04
2023-03-06T02:10:58.901Z,68.42
2023-03-06T02:11:14.529Z,68.33
2023-03-06T02:11:30.148Z,68.14
2023-03-06T02:11:42.359Z,67.64
2023-03-06T02:11:54.915Z,67.82
2023-03-06T02:12:10.210Z,68.00
2023-03-06T02:12:23.340Z,67.92
2023-03-06T02:12:36.802Z,68.04
2023-03-06T02:12:50.922Z,67.95
2023-03-06T02:13:04.176Z,67.68
2023-03-06T02:13:17.142Z,67.51
2023-03-06T02:13:30.202Z,67.83
2023-03-06T02:13:43.952Z,67.63
2023-03-06T02:13:57.744Z,67.67
2023-03-06T02:14:11.404Z,67.31
2023-03-06T02:14:24.171Z,67.54
2023-03-06T02:14:38.615Z,67.45
2023-03-06T02:14:51.197Z,67.46
2023-03-06T02:15:04.780Z,67.58
2023-03-06T02:15:20.408Z,67.11
2023-03-06T02:15:33.482Z,67.07
2023-03-06T02:15:45.991Z,67.38
2023-03-06T02:15:59.051Z,67.52
2023-03-06T02:16:12.293Z,67.29
2023-03-06T02:16:28.016Z,67.12
2023-03-06T02:16:45.142Z,67.20
2023-03-06T02:16:58.526Z,67.01
2023-03-06T02:17:13.404Z,67.31
2023-03-06T02:17:27.265Z,66.95
2023-03-06T02:17:41.768Z,67.13
2023-03-06T02:17:54.661Z,66.96
2023-03-06T02:18:07.392Z,67.25
2023-03-06T02:18:19.924Z,67.30
2023-03-06T02:18:34.286Z,67.27
2023-03-06T02:18:46.983Z,67.14
2023-03-06T02:19:02.624Z,67.37
2023-03-06T02:19:28.546Z,67.47
2023-03-06T02:19:52.491Z,67.08
2023-03-06T02:20:12.227Z,67.46
2023-03-06T02:20:29.695Z,67.16
2023-03-06T02:20:46.269Z,67.59
2023-03-06T02:21:06.590Z,67.40
2023-03-06T02:21:25.201Z,67.51
2023-03-06T02:21:38.104Z,67.51
2023-03-06T02:21:54.014Z,67.67
2023-03-06T02:22:06.525Z,67.44
2023-03-06T02:22:20.034Z,67.32
2023-03-06T02:22:46.271Z,67.21
2023-03-06T02:23:04.264Z,67.40
2023-03-06T02:23:28.195Z,66.94
2023-03-06T02:23:51.509Z,66.80
2023-03-06T02:24:18.943Z,67.24
2023-03-06T02:24:37.662Z,67.01
2023-03-06T02:24:59.004Z,67.25
2023-03-06T02:25:22.899Z,67.45
2023-03-06T02:25:38.060Z,67.54
2023-03-06T02:25:52.783Z,67.29
2023-03-06T02:26:06.756Z,67.44
2023-03-06T02:26:20.916Z,67.14
2023-03-06T02:26:35.048Z,67.16
2023-03-06T02:26:48.414Z,67.01
2023-03-06T02:27:03.095Z,67.12
2023-03-06T02:27:17.178Z,67.09
2023-03-06T02:27:30.261Z,67.19
2023-03-06T02:27:42.840Z,67.28
2023-03-06T02:27:56.097Z,67.00
2023-03-06T02:28:11.932Z,67.05
2023-03-06T02:28:26.067Z,66.81
2023-03-06T02:28:39.068Z,66.88
2023-03-06T02:28:51.457Z,66.80
2023-03-06T02:29:03.962Z,66.91
2023-03-06T02:29:20.699Z,66.92
2023-03-06T02:29:35.243Z,67.25
2023-03-06T02:29:50.327Z,66.68
2023-03-06T02:30:06.478Z,67.01
2023-03-06T02:30:20.081Z,66.84
2023-03-06T02:30:32.649Z,67.07
2023-03-06T02:30:49.170Z,67.10
2023-03-06T02:31:02.487Z,67.03
2023-03-06T02:31:21.787Z,66.88
2023-03-06T02:31:35.137Z,67.06
2023-03-06T02:31:47.397Z,66.90
2023-03-06T02:31:59.865Z,66.86
2023-03-06T02:32:12.464Z,66.62
2023-03-06T02:32:25.262Z,66.96
2023-03-06T02:32:38.000Z,66.98
2023-03-06T02:32:51.414Z,67.15
2023-03-06T02:33:06.596Z,66.55
2023-03-06T02:33:20.980Z,67.02
2023-03-06T02:33:35.375Z,67.09
2023-03-06T02:34:00.465Z,66.70
2023-03-06T02:34:54.581Z,67.17
2023-03-06T02:35:19.356Z,66.58
2023-03-06T02:35:34.233Z,66.39
2023-03-06T02:35:52.646Z,66.67
2023-03-06T02:36:09.578Z,66.47
2023-03-06T02:36:25.321Z,66.28
2023-03-06T02:36:41.072Z,66.66
2023-03-06T02:36:56.630Z,66.71
2023-03-06T02:37:10.227Z,66.38
2023-03-06T02:37:27.450Z,66.38
2023-03-06T02:37:44.069Z,66.57
2023-03-06T02:37:58.389Z,66.83
2023-03-06T02:38:15.002Z,66.32
2023-03-06T02:38:34.813Z,66.54
2023-03-06T02:38:51.356Z,66.61
2023-03-06T02:39:08.521Z,66.78
2023-03-06T02:39:26.124Z,66.23
2023-03-06T02:39:44.380Z,66.45
2023-03-06T02:40:08.042Z,65.97
2023-03-06T02:40:26.703Z,66.23
2023-03-06T02:40:40.549Z,66.17
2023-03-06T02:41:03.673Z,66.33
2023-03-06T02:41:16.051Z,66.41
2023-03-06T02:41:28.277Z,66.11
2023-03-06T02:41:40.649Z,66.04
2023-03-06T02:41:54.892Z,66.28
2023-03-06T02:42:08.297Z,66.20
2023-03-06T02:42:26.839Z,66.07
2023-03-06T02:42:47.212Z,66.51
2023-03-06T02:43:00.826Z,66.25
2023-03-06T02:43:15.887Z,65.97
2023-03-06T02:43:31.934Z,66.56
2023-03-06T02:43:47.773Z,66.32
2023-03-06T02:43:59.783Z,66.49
2023-03-06T02:44:12.102Z,66.41
2023-03-06T02:44:28.695Z,66.40
2023-03-06T02:44:41.575Z,66.73
2023-03-06T02:44:55.636Z,66.45
2023-03-06T02:45:12.757Z,66.22
2023-03-06T02:45:32.056Z,66.62
2023-03-06T02:45:48.780Z,66.60
2023-03-06T02:46:01.386Z,66.94
2023-03-06T02:46:13.720Z,66.56
2023-03-06T02:46:26.895Z,66.76
2023-03-06T02:46:39.840Z,66.82
2023-03-06T02:46:52.523Z,66.74
2023-03-06T02:47:07.602Z,66.69
2023-03-06T02:47:20.111Z,66.59
2023-03-06T02:47:33.053Z,67.11
2023-03-06T02:47:47.191Z,66.67
2023-03-06T02:47:59.610Z,66.66
2023-03-06T02:48:11.746Z,66.88
2023-03-06T02:48:24.046Z,66.50
2023-03-06T02:48:37.147Z,66.72
2023-03-06T02:48:49.431Z,66.72
2023-03-06T02:49:01.638Z,67.20
2023-03-06T02:49:14.417Z,66.91
2023-03-06T02:49:26.736Z,67.03
2023-03-06T02:49:39.333Z,67.04
2023-03-06T02:49:51.901Z,66.96
2023-03-06T02:50:04.338Z,66.91
2023-03-06T02:50:18.149Z,67.06
2023-03-06T02:50:30.848Z,66.57
2023-03-06T02:50:45.109Z,66.82
2023-03-06T02:50:57.309Z,66.92
2023-03-06T02:51:09.789Z,67.09
2023-03-06T02:51:22.407Z,66.82
2023-03-06T02:51:34.839Z,66.71
2023-03-06T02:51:47.556Z,66.69
2023-03-06T02:52:00.146Z,66.60
2023-03-06T02:52:12.910Z,66.31
2023-03-06T02:52:25.423Z,66.61
2023-03-06T02:52:37.995Z,66.65
2023-03-06T02:52:52.035Z,66.61
2023-03-06T02:53:06.701Z,66.61
2023-03-06T02:53:22.988Z,66.58
2023-03-06T02:53:35.408Z,66.37
2023-03-06T02:53:47.818Z,66.47
2023-03-06T02:54:00.277Z,66.44
2023-03-06T02:54:13.231Z,66.41
2023-03-06T02:54:28.639Z,66.72
2023-03-06T02:54:40.956Z,66.41
2023-03-06T02:54:54.333Z,66.59
2023-03-06T02:55:07.122Z,66.61
2023-03-06T02:55:20.360Z,66.27
2023-03-06T02:55:34.617Z,66.59
2023-03-06T02:55:47.196Z,66.91
2023-03-06T02:56:01.233Z,66.35
2023-03-06T02:56:15.688Z,66.31
2023-03-06T02:56:27.820Z,66.24
2023-03-06T02:56:40.577Z,66.13
2023-03-06T02:56:53.349Z,66.14
2023-03-06T02:57:06.221Z,65.94
2023-03-06T02:57:19.544Z,66.46
2023-03-06T02:57:31.605Z,66.10
2023-03-06T02:57:44.590Z,65.76
2023-03-06T02:57:57.614Z,66.02
2023-03-06T02:58:10.043Z,65.96
2023-03-06T02:58:22.028Z,65.62
2023-03-06T02:58:34.553Z,65.85
2023-03-06T02:58:46.845Z,65.51